Time;durP1;ratioP1;P1;durP2;ratioP2;P2;SDS_P1;SDS_P2;PMS_P1;PMS_P2;Temp;Humidity;BMP_temperature;BMP_pressure;BME280_temperature;BME280_humidity;BME280_pressure;Samples;Min_cycle;Max_cycle;Signal;HPM_P1;HPM_P2
2022/12/06 00:01:40;;;;;;;26.38;12.50;;;;;;;4.28;94.13;100236.19;5013221;28;20046;-90
2022/12/06 00:04:13;;;;;;;31.45;14.50;;;;;;;4.29;93.79;100232.63;4965495;28;20053;-90
2022/12/06 00:06:50;;;;;;;26.38;12.88;;;;;;;4.27;93.76;100225.75;4943925;28;20042;-90
2022/12/06 00:09:22;;;;;;;25.50;12.63;;;;;;;4.30;93.52;100228.22;4999800;28;20042;-90
2022/12/06 00:11:49;;;;;;;25.85;13.23;;;;;;;4.26;93.83;100221.44;4982198;28;20060;-89
2022/12/06 00:14:16;;;;;;;24.50;13.32;;;;;;;4.28;93.83;100217.78;4975560;28;20057;-90
2022/12/06 00:16:43;;;;;;;25.60;13.43;;;;;;;4.30;93.73;100229.06;4968380;28;20051;-89
2022/12/06 00:19:15;;;;;;;24.05;12.50;;;;;;;4.26;93.32;100229.34;4930771;28;20050;-89
2022/12/06 00:21:42;;;;;;;27.90;13.43;;;;;;;4.32;93.49;100227.19;4958352;28;20047;-89
2022/12/06 00:24:12;;;;;;;27.48;13.57;;;;;;;4.27;93.49;100231.00;4949019;28;20133;-89
2022/12/06 00:26:42;;;;;;;22.10;12.10;;;;;;;4.31;93.71;100232.53;4967236;28;20058;-89
2022/12/06 00:29:14;;;;;;;27.02;12.07;;;;;;;4.32;93.28;100231.59;4983007;28;20469;-89
2022/12/06 00:31:41;;;;;;;26.27;13.73;;;;;;;4.35;93.57;100232.28;4873273;29;20052;-89
2022/12/06 00:34:08;;;;;;;26.08;12.85;;;;;;;4.33;93.64;100225.44;4909745;29;20048;-89
2022/12/06 00:36:37;;;;;;;27.63;13.68;;;;;;;4.33;94.06;100223.63;4922918;28;20052;-89
2022/12/06 00:39:09;;;;;;;28.23;13.65;;;;;;;4.29;93.44;100227.38;4922292;28;20527;-88
2022/12/06 00:41:36;;;;;;;31.23;14.33;;;;;;;4.37;93.27;100228.72;4888188;28;20585;-89
2022/12/06 00:44:03;;;;;;;24.35;12.57;;;;;;;4.33;93.28;100228.06;4925709;28;20130;-89
2022/12/06 00:46:31;;;;;;;26.55;14.40;;;;;;;4.35;93.50;100226.16;4922188;28;20047;-89
2022/12/06 00:48:59;;;;;;;25.55;13.23;;;;;;;4.34;93.77;100221.84;4909040;28;20051;-90
2022/12/06 00:51:28;;;;;;;25.80;13.38;;;;;;;4.35;93.07;100226.16;4870607;28;20047;-90
2022/12/06 00:53:55;;;;;;;25.30;12.32;;;;;;;4.34;93.35;100227.09;4903380;28;20063;-90
2022/12/06 00:56:21;;;;;;;28.10;14.40;;;;;;;4.35;93.40;100220.91;4922488;28;20048;-90
2022/12/06 00:58:48;;;;;;;26.80;13.40;;;;;;;4.36;93.45;100220.00;4887686;28;20044;-90
2022/12/06 01:01:20;;;;;;;20.38;11.75;;;;;;;4.32;93.27;100215.81;4892011;28;20855;-89
2022/12/06 01:03:52;;;;;;;24.15;12.52;;;;;;;4.37;93.45;100216.41;4989411;28;20101;-90
2022/12/06 01:06:21;;;;;;;24.95;12.52;;;;;;;4.34;93.84;100206.06;4966787;28;20038;-90
2022/12/06 01:08:49;;;;;;;24.75;12.15;;;;;;;4.25;93.97;100206.59;4948826;28;20053;-89
2022/12/06 01:11:16;;;;;;;23.85;12.75;;;;;;;4.30;94.38;100215.06;4996057;28;20042;-90
2022/12/06 01:13:43;;;;;;;24.90;12.88;;;;;;;4.27;94.52;100216.06;4968955;28;20238;-90
2022/12/06 01:16:17;;;;;;;25.80;13.43;;;;;;;4.28;93.97;100212.53;4965813;28;20052;-89
2022/12/06 01:18:44;;;;;;;26.42;13.85;;;;;;;4.26;94.75;100214.41;4981478;28;20493;-89
2022/12/06 01:21:14;;;;;;;27.05;12.77;;;;;;;4.27;94.44;100207.34;4949734;28;20050;-89
2022/12/06 01:23:43;;;;;;;29.95;14.30;;;;;;;4.26;94.63;100217.03;4970076;28;20053;-89
2022/12/06 01:26:19;;;;;;;24.02;13.23;;;;;;;4.24;94.45;100212.78;4982638;28;20073;-88
2022/12/06 01:28:46;;;;;;;28.30;13.68;;;;;;;4.27;94.68;100213.44;4976217;28;20048;-90
2022/12/06 01:31:13;;;;;;;25.55;12.63;;;;;;;4.28;94.91;100219.59;4965706;28;20049;-89
2022/12/06 01:33:40;;;;;;;28.92;12.85;;;;;;;4.33;94.78;100220.16;4950546;28;20050;-88
2022/12/06 01:36:08;;;;;;;24.00;12.73;;;;;;;4.27;94.89;100218.72;4949338;28;20050;-89
2022/12/06 01:38:34;;;;;;;26.10;13.52;;;;;;;4.29;94.98;100213.38;4996220;28;20066;-90
2022/12/06 01:41:01;;;;;;;27.50;13.30;;;;;;;4.29;94.98;100208.97;4983857;28;20046;-89
2022/12/06 01:43:34;;;;;;;30.50;14.25;;;;;;;4.33;94.66;100209.66;4964252;28;20047;-89
2022/12/06 01:46:30;;;;;;;24.88;13.70;;;;;;;4.23;94.35;100214.56;4927347;28;20074;-90
2022/12/06 01:49:06;;;;;;;26.30;12.85;;;;;;;4.30;94.21;100207.16;4926873;28;20043;-90
2022/12/06 01:51:34;;;;;;;27.15;13.48;;;;;;;4.28;94.55;100209.06;4946399;28;20134;-90
2022/12/06 01:54:03;;;;;;;30.73;14.10;;;;;;;4.30;94.71;100209.81;4955852;28;20124;-89
2022/12/06 01:56:30;;;;;;;27.85;14.10;;;;;;;4.32;94.55;100208.78;4951785;28;20533;-89
2022/12/06 01:58:57;;;;;;;29.67;14.57;;;;;;;4.33;94.90;100207.03;4930666;28;20059;-90
2022/12/06 02:01:26;;;;;;;28.58;14.18;;;;;;;4.32;94.60;100200.91;4946203;28;20059;-89
2022/12/06 02:03:55;;;;;;;29.77;14.90;;;;;;;4.32;94.89;100200.06;4963221;28;20086;-89
2022/12/06 02:06:22;;;;;;;29.50;13.73;;;;;;;4.32;95.15;100193.00;4982612;28;20121;-90
2022/12/06 02:08:50;;;;;;;28.73;13.57;;;;;;;4.34;94.92;100185.03;5003857;28;20073;-90
2022/12/06 02:11:17;;;;;;;26.60;14.07;;;;;;;4.32;94.88;100182.50;4948710;28;20043;-90
2022/12/06 02:13:44;;;;;;;24.70;13.65;;;;;;;4.37;94.53;100173.50;4930795;28;20048;-89
2022/12/06 02:16:34;;;;;;;30.17;14.30;;;;;;;4.29;94.39;100177.41;4950908;28;20050;-90
2022/12/06 02:19:37;;;;;;;29.02;14.55;;;;;;;4.32;94.30;100173.75;4935432;28;20077;-90
2022/12/06 02:22:09;;;;;;;24.77;12.55;;;;;;;4.37;94.48;100178.75;4947378;28;20050;-90
2022/12/06 02:24:42;;;;;;;28.65;14.65;;;;;;;4.32;94.40;100179.03;4953272;28;21102;-90
2022/12/06 02:27:20;;;;;;;28.27;14.27;;;;;;;4.28;95.11;100181.00;4976788;28;20049;-91
2022/12/06 02:30:09;;;;;;;28.92;14.05;;;;;;;4.28;95.51;100180.16;4934996;28;20042;-90
2022/12/06 02:32:41;;;;;;;27.70;14.32;;;;;;;4.32;95.19;100177.22;4919805;28;20046;-90
2022/12/06 02:35:14;;;;;;;29.70;13.70;;;;;;;4.31;95.56;100178.19;4964873;28;20113;-90
2022/12/06 02:37:55;;;;;;;27.55;13.07;;;;;;;4.30;95.45;100173.88;4932888;28;20043;-90
2022/12/06 02:40:26;;;;;;;26.65;13.82;;;;;;;4.36;95.30;100175.28;4937854;28;20077;-90
2022/12/06 02:42:55;;;;;;;25.13;12.63;;;;;;;4.38;95.08;100176.06;4967274;28;20034;-91
2022/12/06 02:45:26;;;;;;;25.85;13.10;;;;;;;4.34;95.29;100179.78;4984509;28;20058;-90
2022/12/06 02:47:55;;;;;;;24.88;13.45;;;;;;;4.34;95.27;100179.78;4953038;28;20051;-91
2022/12/06 02:50:27;;;;;;;26.50;13.73;;;;;;;4.32;95.61;100179.88;4966490;28;20045;-91
2022/12/06 02:52:57;;;;;;;29.45;14.95;;;;;;;4.37;95.62;100173.50;4977359;28;20042;-90
2022/12/06 02:55:25;;;;;;;29.70;14.68;;;;;;;4.37;95.68;100179.59;4966334;28;20047;-90
2022/12/06 02:57:53;;;;;;;26.45;14.18;;;;;;;4.39;95.36;100176.91;4966844;28;20051;-89
2022/12/06 03:00:40;;;;;;;30.65;14.23;;;;;;;4.32;95.48;100171.97;4978941;28;20046;-90
2022/12/06 03:03:24;;;;;;;26.10;13.32;;;;;;;4.39;95.68;100175.13;4936004;28;20492;-89
2022/12/06 03:05:57;;;;;;;32.60;14.63;;;;;;;4.37;95.83;100166.47;4925612;28;20491;-90
2022/12/06 03:08:35;;;;;;;31.27;15.13;;;;;;;4.36;95.53;100162.16;4985094;28;20050;-89
2022/12/06 03:11:02;;;;;;;29.25;15.32;;;;;;;4.42;95.48;100167.03;4953576;28;20081;-90
2022/12/06 03:13:32;;;;;;;30.38;14.63;;;;;;;4.41;95.71;100156.63;4971476;28;20057;-90
2022/12/06 03:16:07;;;;;;;32.15;16.10;;;;;;;4.38;95.96;100154.19;4967761;28;20125;-90
2022/12/06 03:18:40;;;;;;;31.20;14.98;;;;;;;4.39;95.87;100147.97;4954803;28;20081;-90
2022/12/06 03:21:14;;;;;;;25.48;14.07;;;;;;;4.38;96.23;100147.13;4943065;28;20057;-90
2022/12/06 03:23:44;;;;;;;28.40;14.20;;;;;;;4.44;96.00;100146.78;4942917;28;20043;-90
2022/12/06 03:26:13;;;;;;;24.65;13.05;;;;;;;4.46;96.11;100142.28;4945681;28;20056;-91
2022/12/06 03:28:41;;;;;;;24.60;12.32;;;;;;;4.49;95.92;100139.47;4961772;28;20046;-90
2022/12/06 03:31:10;;;;;;;24.55;13.55;;;;;;;4.51;95.53;100134.13;4977701;28;20047;-89
2022/12/06 03:33:45;;;;;;;23.05;12.85;;;;;;;4.49;95.54;100139.47;4948824;28;20060;-89
2022/12/06 03:36:13;;;;;;;20.33;12.32;;;;;;;4.51;95.51;100134.13;4966343;28;20047;-90
2022/12/06 03:38:46;;;;;;;26.95;13.18;;;;;;;4.48;95.83;100124.63;4922628;28;20050;-89
2022/12/06 03:41:13;;;;;;;21.35;11.85;;;;;;;4.51;95.89;100129.72;4958476;28;20145;-89
2022/12/06 03:43:40;;;;;;;23.17;12.27;;;;;;;4.49;96.08;100131.56;4939709;28;20397;-90
2022/12/06 03:46:13;;;;;;;24.30;12.40;;;;;;;4.53;95.36;100134.88;4932789;28;20047;-90
2022/12/06 03:48:47;;;;;;;25.10;13.60;;;;;;;4.48;95.84;100136.94;4915672;28;20047;-91
2022/12/06 03:51:22;;;;;;;22.98;12.90;;;;;;;4.46;96.10;100137.03;4931952;28;20059;-90
2022/12/06 03:53:52;;;;;;;22.17;12.13;;;;;;;4.49;95.90;100146.50;4982167;28;20053;-90
2022/12/06 03:56:20;;;;;;;24.23;12.85;;;;;;;4.50;95.84;100135.91;4967754;28;20046;-90
2022/12/06 03:58:46;;;;;;;22.92;12.55;;;;;;;4.50;95.94;100135.03;4997820;28;20138;-90
2022/12/06 04:01:14;;;;;;;19.42;11.63;;;;;;;4.52;95.96;100130.53;4932887;28;20086;-90
2022/12/06 04:03:41;;;;;;;19.77;11.95;;;;;;;4.50;95.71;100135.03;4932245;28;20134;-90
2022/12/06 04:06:09;;;;;;;18.52;11.40;;;;;;;4.53;95.61;100132.25;4948167;28;20457;-90
2022/12/06 04:08:36;;;;;;;20.70;11.43;;;;;;;4.55;95.34;100138.25;4947124;28;20491;-90
2022/12/06 04:11:03;;;;;;;18.55;10.60;;;;;;;4.53;95.10;100125.22;4943644;28;20050;-90
2022/12/06 04:13:30;;;;;;;20.80;10.25;;;;;;;4.52;95.49;100125.28;4976890;28;20410;-91
2022/12/06 04:15:59;;;;;;;17.23;9.68;;;;;;;4.51;95.55;100115.72;4947592;28;20097;-89
2022/12/06 04:18:26;;;;;;;18.27;10.27;;;;;;;4.50;95.82;100114.88;4935094;28;20055;-90
2022/12/06 04:23:50;;;;;;;18.33;10.63;;;;;;;4.53;95.95;100111.22;4965468;28;20054;-90
2022/12/06 04:26:19;;;;;;;18.75;10.88;;;;;;;4.54;96.04;100112.91;4981816;28;20038;-91
2022/12/06 04:39:49;;;;;;;19.20;11.27;;;;;;;4.51;96.27;100092.88;4931149;28;20078;-90
2022/12/06 04:45:03;;;;;;;19.30;10.60;;;;;;;4.50;96.32;100091.22;4966895;28;20134;-90
2022/12/06 04:47:30;;;;;;;17.67;10.13;;;;;;;4.53;95.92;100096.28;4998064;28;20042;-90
2022/12/06 04:49:57;;;;;;;17.30;10.52;;;;;;;4.54;96.11;100097.97;4966142;28;20046;-91
2022/12/06 04:52:25;;;;;;;20.15;10.52;;;;;;;4.57;96.00;100095.16;4986300;28;20487;-93
2022/12/06 04:54:56;;;;;;;20.35;11.50;;;;;;;4.54;96.24;100095.34;4992320;28;20137;-93
2022/12/06 04:57:23;;;;;;;21.02;11.48;;;;;;;4.59;96.08;100091.59;4965735;28;20101;-94
2022/12/06 04:59:50;;;;;;;18.60;11.13;;;;;;;4.57;96.35;100086.41;4967407;28;20066;-91
2022/12/06 05:02:17;;;;;;;18.55;11.20;;;;;;;4.55;96.67;100091.78;4945749;28;20054;-92
2022/12/06 05:04:44;;;;;;;20.83;11.13;;;;;;;4.57;96.40;100079.38;4950083;28;20050;-91
2022/12/06 05:07:11;;;;;;;19.60;11.55;;;;;;;4.60;96.28;100078.34;4965582;28;20047;-90
2022/12/06 05:09:38;;;;;;;20.48;10.93;;;;;;;4.59;96.53;100073.19;4936821;28;20106;-93
2022/12/06 05:12:07;;;;;;;17.48;10.68;;;;;;;4.59;96.61;100075.81;4895972;28;20055;-92
2022/12/06 05:14:33;;;;;;;17.35;10.48;;;;;;;4.56;96.62;100068.97;4929575;28;20070;-92
2022/12/06 05:17:00;;;;;;;15.52;9.73;;;;;;;4.62;96.61;100078.25;4947709;28;20386;-93
2022/12/06 05:19:27;;;;;;;17.35;10.00;;;;;;;4.62;96.54;100071.19;4962245;28;20514;-93
2022/12/06 05:21:54;;;;;;;18.15;9.68;;;;;;;4.64;96.16;100077.22;4969797;28;20093;-92
2022/12/06 05:24:21;;;;;;;16.13;9.57;;;;;;;4.59;96.56;100067.94;4963100;28;20047;-91
2022/12/06 05:26:48;;;;;;;17.17;9.82;;;;;;;4.64;96.43;100071.13;4968995;28;20046;-91
2022/12/06 05:29:14;;;;;;;15.32;10.45;;;;;;;4.64;96.75;100077.22;4956056;28;20047;-90
2022/12/06 05:31:41;;;;;;;19.58;10.32;;;;;;;4.65;96.66;100073.66;4944584;28;20075;-90
2022/12/06 05:34:09;;;;;;;16.70;9.40;;;;;;;4.65;96.85;100071.00;4930765;28;20043;-90
2022/12/06 05:36:36;;;;;;;13.88;9.65;;;;;;;4.64;96.86;100065.88;4940204;28;20039;-90
2022/12/06 05:39:03;;;;;;;19.27;11.10;;;;;;;4.68;96.62;100077.88;4926328;28;20461;-90
2022/12/06 05:41:29;;;;;;;16.08;9.68;;;;;;;4.68;96.72;100067.34;4922206;28;20090;-90
2022/12/06 05:43:56;;;;;;;16.63;9.70;;;;;;;4.66;97.23;100072.72;4963798;28;20625;-90
2022/12/06 05:46:23;;;;;;;19.20;9.93;;;;;;;4.69;96.67;100067.28;4982802;28;20050;-89
2022/12/06 05:48:50;;;;;;;16.77;8.95;;;;;;;4.68;96.85;100069.97;4948567;28;20102;-90
2022/12/06 05:51:16;;;;;;;17.95;9.57;;;;;;;4.67;97.07;100071.78;4950824;28;20089;-90
2022/12/06 05:53:43;;;;;;;17.17;9.75;;;;;;;4.67;96.89;100065.66;4984693;28;20108;-86
2022/12/06 05:56:11;;;;;;;18.98;9.45;;;;;;;4.68;96.98;100070.84;4985543;28;20070;-90
2022/12/06 05:58:38;;;;;;;17.25;10.13;;;;;;;4.69;96.83;100082.22;4963052;28;20054;-90
2022/12/06 06:01:06;;;;;;;15.35;8.95;;;;;;;4.71;96.58;100083.81;4935463;28;20058;-89
2022/12/06 06:03:33;;;;;;;17.02;8.95;;;;;;;4.71;96.77;100090.88;4960680;28;20057;-90
2022/12/06 06:06:00;;;;;;;14.60;9.82;;;;;;;4.71;96.53;100091.72;4983125;28;20052;-90
2022/12/06 06:08:28;;;;;;;15.45;8.70;;;;;;;4.72;96.31;100098.66;4948950;28;20444;-90
2022/12/06 06:10:55;;;;;;;13.98;7.90;;;;;;;4.71;96.93;100096.97;4967207;28;20050;-90
2022/12/06 06:13:22;;;;;;;14.15;8.13;;;;;;;4.75;96.59;100100.25;4970565;28;20047;-90
2022/12/06 06:15:49;;;;;;;13.63;7.90;;;;;;;4.75;96.38;100093.19;4954018;28;20054;-90
2022/12/06 06:18:17;;;;;;;17.27;9.30;;;;;;;4.75;96.77;100100.25;5003472;28;20414;-91
2022/12/06 06:20:56;;;;;;;15.88;8.40;;;;;;;4.72;96.83;100101.28;4957228;28;20070;-90
2022/12/06 06:23:23;;;;;;;15.57;8.43;;;;;;;4.75;96.70;100106.34;4939549;28;20039;-90
2022/12/06 06:25:50;;;;;;;13.15;7.93;;;;;;;4.78;96.83;100100.06;4965084;28;20054;-89
2022/12/06 06:28:17;;;;;;;12.63;7.72;;;;;;;4.81;96.66;100099.03;4979888;28;20394;-89
2022/12/06 06:30:44;;;;;;;12.43;7.18;;;;;;;4.83;96.50;100097.16;4970877;28;20117;-89
2022/12/06 06:33:11;;;;;;;13.05;7.50;;;;;;;4.81;96.72;100094.63;4983850;28;20046;-89
2022/12/06 06:35:38;;;;;;;11.68;6.85;;;;;;;4.82;96.92;100093.69;4979961;28;20076;-89
2022/12/06 06:38:05;;;;;;;8.80;5.88;;;;;;;4.84;96.45;100097.06;4975273;28;20398;-89
2022/12/06 06:40:32;;;;;;;10.45;5.63;;;;;;;4.85;96.59;100098.75;4998260;28;20039;-90
2022/12/06 06:43:16;;;;;;;11.15;6.43;;;;;;;4.86;96.48;100091.69;4931293;28;20055;-89
2022/12/06 06:45:54;;;;;;;8.23;6.00;;;;;;;4.83;96.60;100094.53;4951638;28;20046;-89
2022/12/06 06:48:22;;;;;;;9.82;6.28;;;;;;;4.86;96.54;100095.19;4946960;28;20101;-89
2022/12/06 06:50:49;;;;;;;10.27;5.60;;;;;;;4.88;96.65;100097.72;4978412;28;20051;-88
2022/12/06 06:53:23;;;;;;;8.23;5.15;;;;;;;4.90;96.53;100099.31;4975823;28;20038;-89
2022/12/06 06:55:52;;;;;;;7.70;4.50;;;;;;;4.91;96.47;100098.41;4935039;28;20049;-88
2022/12/06 06:58:19;;;;;;;7.38;4.78;;;;;;;4.91;96.43;100103.66;4984207;28;20442;-90
2022/12/06 07:00:54;;;;;;;10.95;6.18;;;;;;;4.88;96.58;100101.19;4983925;28;20078;-90
2022/12/06 07:03:22;;;;;;;15.75;6.13;;;;;;;4.89;96.51;100100.28;4982796;28;20051;-89
2022/12/06 07:05:53;;;;;;;8.23;5.43;;;;;;;4.89;96.25;100096.81;4968075;28;20058;-88
2022/12/06 07:08:20;;;;;;;9.05;4.90;;;;;;;4.90;96.67;100096.69;4964231;28;20118;-89
2022/12/06 07:10:50;;;;;;;7.80;5.70;;;;;;;4.91;96.49;100098.41;4952710;28;20046;-88
2022/12/06 07:13:17;;;;;;;8.88;5.10;;;;;;;4.92;96.00;100096.59;4967208;28;20050;-89
2022/12/06 07:15:44;;;;;;;8.70;5.50;;;;;;;4.93;95.78;100095.66;4994879;28;20046;-87
2022/12/06 07:18:11;;;;;;;7.43;5.03;;;;;;;4.95;95.89;100101.69;4982664;28;20050;-89
2022/12/06 07:20:37;;;;;;;8.32;5.38;;;;;;;4.93;96.11;100093.88;4968145;28;20045;-89
2022/12/06 07:23:04;;;;;;;9.45;5.28;;;;;;;4.92;96.45;100089.56;4949350;28;20054;-89
2022/12/06 07:25:31;;;;;;;8.07;4.88;;;;;;;4.91;96.39;100090.50;4948736;28;20070;-89
2022/12/06 07:27:58;;;;;;;8.32;5.50;;;;;;;4.93;96.19;100103.56;4913938;28;20132;-89
2022/12/06 07:30:26;;;;;;;8.13;4.63;;;;;;;4.91;96.22;100097.53;4964404;28;20423;-89
2022/12/06 07:32:53;;;;;;;8.30;4.93;;;;;;;4.91;96.72;100098.41;4961759;28;20054;-89
2022/12/06 07:35:20;;;;;;;7.20;4.65;;;;;;;4.89;96.99;100099.44;4949416;28;20070;-90
2022/12/06 07:37:47;;;;;;;8.70;5.25;;;;;;;4.89;97.01;100099.44;4966517;28;20108;-88
2022/12/06 07:40:16;;;;;;;8.32;5.20;;;;;;;4.88;96.75;100095.94;4983232;28;20050;-90
2022/12/06 07:45:31;;;;;;;8.93;4.93;;;;;;;4.91;97.04;100097.53;4981796;28;20053;-89
2022/12/06 07:47:58;;;;;;;7.00;5.13;;;;;;;4.91;96.74;100093.13;4934717;28;20097;-89
2022/12/06 07:50:25;;;;;;;8.65;4.82;;;;;;;4.93;96.88;100100.91;4950302;28;20491;-89
2022/12/06 07:52:52;;;;;;;7.78;4.93;;;;;;;4.93;96.94;100098.28;4993497;28;20101;-89
2022/12/06 07:55:19;;;;;;;11.65;5.40;;;;;;;4.93;96.86;100093.03;4980520;28;20383;-89
2022/12/06 07:57:45;;;;;;;14.30;5.88;;;;;;;4.95;96.57;100094.63;4971876;28;20093;-89
2022/12/06 08:00:14;;;;;;;10.25;5.53;;;;;;;4.97;96.40;100091.91;4982903;28;20085;-88
2022/12/06 08:02:41;;;;;;;7.15;4.78;;;;;;;4.95;96.66;100094.63;4947978;28;20447;-89
2022/12/06 08:05:08;;;;;;;8.85;5.20;;;;;;;4.96;96.55;100096.34;4962577;28;20050;-89
2022/12/06 08:07:35;;;;;;;7.50;4.93;;;;;;;4.96;96.62;100098.97;4966983;28;20034;-89
2022/12/06 08:10:03;;;;;;;7.60;4.78;;;;;;;4.99;96.09;100090.88;4980572;28;20046;-88
2022/12/06 08:12:30;;;;;;;8.45;4.90;;;;;;;5.00;96.29;100097.81;4968410;28;20042;-89
2022/12/06 08:14:57;;;;;;;7.18;4.63;;;;;;;5.01;96.21;100103.94;4967530;28;20414;-90
2022/12/06 08:17:26;;;;;;;10.35;5.97;;;;;;;5.00;96.46;100108.34;4962155;28;20054;-89
2022/12/06 08:19:53;;;;;;;9.00;5.00;;;;;;;4.99;96.79;100105.81;4984168;28;20449;-89
2022/12/06 08:22:20;;;;;;;8.70;5.00;;;;;;;5.00;96.38;100100.44;4970176;28;20050;-90
2022/12/06 08:24:46;;;;;;;8.50;4.93;;;;;;;4.99;96.60;100104.03;4999412;28;20046;-89
2022/12/06 08:27:13;;;;;;;7.60;5.28;;;;;;;4.99;96.60;100108.47;4982453;28;20046;-88
2022/12/06 08:29:40;;;;;;;9.23;5.32;;;;;;;4.99;96.73;100103.19;4983662;28;20069;-89
2022/12/06 08:32:07;;;;;;;7.18;4.72;;;;;;;4.99;96.84;100108.47;4940735;28;20057;-89
2022/12/06 08:34:33;;;;;;;7.35;4.25;;;;;;;5.00;96.44;100110.97;4967625;28;20050;-89
2022/12/06 08:37:00;;;;;;;6.90;4.47;;;;;;;5.00;96.34;100110.97;4998980;28;20108;-89
2022/12/06 08:39:29;;;;;;;6.93;4.78;;;;;;;5.02;96.30;100107.44;4998450;28;20093;-89
2022/12/06 08:42:01;;;;;;;11.20;5.43;;;;;;;5.03;96.22;100106.47;4975996;28;20074;-88
2022/12/06 08:44:29;;;;;;;7.57;4.90;;;;;;;5.01;96.30;100106.56;4949520;28;20039;-89
2022/12/06 08:46:57;;;;;;;6.70;5.20;;;;;;;4.98;96.65;100102.31;4960364;28;20541;-89
2022/12/06 08:49:24;;;;;;;8.07;5.13;;;;;;;5.02;96.56;100110.06;4965635;28;20049;-89
2022/12/06 08:51:52;;;;;;;6.40;4.47;;;;;;;5.01;96.42;100106.56;4974887;28;20601;-89
2022/12/06 08:54:22;;;;;;;9.73;5.38;;;;;;;5.03;96.38;100117.00;4927904;28;20047;-89
2022/12/06 08:56:49;;;;;;;6.95;4.78;;;;;;;5.02;96.88;100115.31;4932123;28;20043;-90
2022/12/06 08:59:17;;;;;;;8.10;5.18;;;;;;;5.04;96.36;100110.78;4947162;28;20043;-89
2022/12/06 09:01:44;;;;;;;9.15;4.93;;;;;;;5.03;95.88;100106.47;4944504;28;20043;-89
2022/12/06 09:04:11;;;;;;;7.88;5.13;;;;;;;4.99;95.19;100108.47;4929129;28;20129;-89
2022/12/06 09:06:39;;;;;;;7.15;4.10;;;;;;;5.02;95.02;100112.69;4956365;28;20093;-85
2022/12/06 09:09:08;;;;;;;9.57;5.18;;;;;;;5.02;95.04;100107.44;4968257;28;20046;-89
2022/12/06 09:11:35;;;;;;;8.15;4.85;;;;;;;5.01;95.56;100109.19;4980903;28;20446;-88
2022/12/06 09:14:02;;;;;;;8.77;5.20;;;;;;;5.03;95.64;100106.47;5000196;28;20450;-88
2022/12/06 09:16:29;;;;;;;6.65;5.10;;;;;;;5.02;95.37;100108.25;4968341;28;20069;-88
2022/12/06 09:18:56;;;;;;;7.40;5.30;;;;;;;5.05;95.08;100108.06;4984190;28;20050;-90
2022/12/06 09:21:26;;;;;;;7.38;4.93;;;;;;;5.05;95.25;100109.88;4965263;28;20050;-90
2022/12/06 09:23:54;;;;;;;10.57;5.18;;;;;;;5.08;95.58;100109.66;4981062;28;20079;-89
2022/12/06 09:26:21;;;;;;;7.63;5.35;;;;;;;5.07;95.44;100102.72;4963654;28;20078;-87
2022/12/06 09:28:49;;;;;;;7.75;5.18;;;;;;;5.09;95.53;100101.69;4985563;28;20047;-90
2022/12/06 09:31:17;;;;;;;7.80;5.30;;;;;;;5.10;95.45;100099.91;4985565;28;20042;-89
2022/12/06 09:33:44;;;;;;;7.85;4.53;;;;;;;5.11;95.13;100098.94;4971087;28;20042;-89
2022/12/06 09:36:15;;;;;;;6.97;4.90;;;;;;;5.11;94.51;100107.69;4971401;28;20580;-89
2022/12/06 09:38:43;;;;;;;6.65;4.57;;;;;;;5.11;94.94;100105.06;4930505;28;20043;-88
2022/12/06 09:41:22;;;;;;;5.38;4.18;;;;;;;5.07;93.98;100103.56;4957514;28;20069;-90
2022/12/06 09:44:26;;;;;;;7.97;5.05;;;;;;;5.06;94.14;100101.03;4932434;28;20110;-90
2022/12/06 09:47:15;;;;;;;7.18;4.88;;;;;;;5.11;94.35;100102.41;4952923;28;20046;-89
2022/12/06 09:49:56;;;;;;;7.22;5.10;;;;;;;5.12;94.12;100100.66;4960808;28;20466;-89
2022/12/06 09:52:45;;;;;;;9.25;5.13;;;;;;;5.09;93.37;100101.69;4953465;28;20047;-87
2022/12/06 09:55:22;;;;;;;8.27;5.07;;;;;;;5.11;92.91;100105.06;5016455;28;20038;-89
2022/12/06 09:58:17;;;;;;;7.63;4.57;;;;;;;5.09;92.71;100106.09;5000498;28;20058;-89
2022/12/06 10:01:26;;;;;;;5.90;4.65;;;;;;;5.10;93.22;100116.53;4955200;28;20493;-89
2022/12/06 10:04:06;;;;;;;8.05;5.20;;;;;;;5.13;93.56;100111.06;4949298;28;20395;-90
2022/12/06 10:06:41;;;;;;;8.18;5.28;;;;;;;5.14;93.64;100110.16;4965956;28;20513;-89
2022/12/06 10:09:20;;;;;;;8.32;5.38;;;;;;;5.13;94.04;100105.81;4945824;28;20062;-89
2022/12/06 10:12:09;;;;;;;8.20;5.15;;;;;;;5.10;92.89;100105.16;4917938;28;20562;-89
2022/12/06 10:15:14;;;;;;;8.35;5.15;;;;;;;5.12;92.96;100106.75;4918041;28;20058;-89
2022/12/06 10:18:00;;;;;;;8.30;5.22;;;;;;;5.15;93.30;100103.94;4930581;28;20410;-90
2022/12/06 10:20:43;;;;;;;8.20;5.22;;;;;;;5.16;93.26;100099.50;4959321;28;20059;-89
2022/12/06 10:23:47;;;;;;;8.55;5.45;;;;;;;5.12;93.60;100101.50;4942824;28;20047;-89
2022/12/06 10:26:38;;;;;;;9.82;6.30;;;;;;;5.18;93.63;100095.00;4919981;28;20047;-89
2022/12/06 10:29:15;;;;;;;14.95;6.90;;;;;;;5.16;93.65;100092.44;4890230;28;20447;-89
2022/12/06 10:31:59;;;;;;;13.10;6.68;;;;;;;5.17;93.42;100091.53;4922658;28;20051;-89
2022/12/06 10:34:56;;;;;;;14.85;9.23;;;;;;;5.12;92.75;100090.13;4928634;28;20047;-89
2022/12/06 10:37:37;;;;;;;14.85;8.70;;;;;;;5.18;92.95;100092.38;4878759;28;20082;-88
2022/12/06 10:40:21;;;;;;;13.48;7.95;;;;;;;5.11;91.65;100093.69;4914678;28;20047;-90
2022/12/06 10:42:54;;;;;;;12.27;7.15;;;;;;;5.13;91.72;100100.53;4910064;28;20047;-89
2022/12/06 10:48:51;;;;;;;13.40;7.90;;;;;;;5.09;91.49;100098.19;4922860;28;20110;-89
2022/12/06 10:51:24;;;;;;;13.85;8.70;;;;;;;5.16;92.06;100096.88;4920438;28;20046;-90
2022/12/06 10:53:56;;;;;;;13.13;7.88;;;;;;;5.18;92.52;100102.91;4964094;28;20054;-90
2022/12/06 10:56:28;;;;;;;16.37;9.07;;;;;;;5.20;92.90;100111.56;4966450;28;20057;-88
2022/12/06 10:59:03;;;;;;;14.57;8.63;;;;;;;5.20;92.42;100106.28;4982212;28;20053;-90
2022/12/06 11:01:37;;;;;;;13.93;8.45;;;;;;;5.21;92.42;100113.22;4959390;28;20187;-90
2022/12/06 11:04:21;;;;;;;13.93;8.75;;;;;;;5.20;92.21;100096.59;4932461;28;20397;-88
2022/12/06 11:06:54;;;;;;;15.93;9.10;;;;;;;5.25;92.45;100101.59;4979573;28;20067;-89
2022/12/06 11:09:43;;;;;;;13.63;8.10;;;;;;;5.19;92.22;100096.69;4970179;28;20109;-89
2022/12/06 11:12:35;;;;;;;13.27;8.13;;;;;;;5.19;91.60;100094.91;4965504;28;20406;-90
2022/12/06 11:15:08;;;;;;;13.00;8.05;;;;;;;5.19;91.56;100089.66;4951544;28;20781;-89
2022/12/06 11:17:36;;;;;;;13.65;9.02;;;;;;;5.21;91.75;100093.00;4911231;28;20058;-89
2022/12/06 11:20:18;;;;;;;10.45;6.88;;;;;;;5.20;91.42;100093.97;4918271;28;20414;-90
2022/12/06 11:23:23;;;;;;;9.90;6.10;;;;;;;5.19;89.33;100094.03;4965857;28;20979;-87
2022/12/06 11:25:54;;;;;;;;;;;;;;;5.05;89.12;100097.53;4950608;28;20054;-89
2022/12/06 11:28:35;;;;;;;9.60;6.10;;;;;;;5.07;89.75;100102.72;4980537;28;19928;-89
2022/12/06 11:31:11;;;;;;;9.40;5.57;;;;;;;5.11;90.32;100098.94;4953844;28;20039;-90
2022/12/06 11:33:38;;;;;;;8.52;6.13;;;;;;;5.09;89.99;100104.31;4923565;28;20039;-90
2022/12/06 11:36:06;;;;;;;9.48;6.15;;;;;;;5.14;90.11;100104.00;4953911;28;20073;-89
2022/12/06 11:38:34;;;;;;;8.43;5.53;;;;;;;5.13;89.91;100099.72;4978353;28;20065;-89
2022/12/06 11:41:01;;;;;;;8.45;5.68;;;;;;;5.13;89.79;100091.81;4982750;28;20046;-89
2022/12/06 11:43:31;;;;;;;9.55;5.80;;;;;;;5.13;90.17;100090.00;4979836;28;20137;-90
2022/12/06 11:45:58;;;;;;;8.80;4.68;;;;;;;5.13;89.93;100095.28;4912666;28;20740;-88
2022/12/06 11:48:27;;;;;;;8.90;5.50;;;;;;;5.13;89.83;100094.44;4909593;28;20514;-89
2022/12/06 11:50:54;;;;;;;8.63;5.45;;;;;;;5.14;90.11;100090.84;4939410;28;20043;-90
2022/12/06 11:53:29;;;;;;;10.02;6.43;;;;;;;5.16;90.53;100087.19;4918890;28;20122;-89
2022/12/06 11:55:59;;;;;;;9.73;6.38;;;;;;;5.15;89.71;100084.66;4900976;28;20060;-90
2022/12/06 11:58:34;;;;;;;13.23;7.38;;;;;;;5.15;89.78;100079.41;4912505;28;20057;-89
2022/12/06 12:01:09;;;;;;;16.35;8.70;;;;;;;5.11;89.86;100091.06;4955971;28;20447;-87
2022/12/06 12:03:37;;;;;;;15.75;7.97;;;;;;;5.09;89.53;100079.75;4889553;29;20054;-90
2022/12/06 12:06:18;;;;;;;14.50;9.02;;;;;;;5.05;89.07;100081.75;4937257;28;20451;-90